Rock Canyon, New Mexico
Current Conditions -  °F | °C
As of 3:53 AM on Friday 24 Oct 2014 (Local Time) from KTCS Reporting Station
Clear Clear  
Wind Chill: 56°   Ceiling: Unl
Heat Index: 56°   Visibility: 10mi
Dew Point: 45°   Wind: 7mph
Humidity: 67%   Direction: 310°NW
Pressure: 30.24"   Gusts: NA
Location:  33.1893°N, 107.211°W
Report Text: KTCS 240953Z AUTO 31006KT 10SM CLR 13/07 A3024 RMK AO2 SLP173 T01330072 TSNO
Loading
Personal Weather Stations






























Interactive Weather Map
Tropical Storm Tracking
New forecast layout! Learn more

10-Day Weather Forecast

Advertisements
Track Severe Weather on mobile